Pagrindinis puslapis
METAR-TAF:

METAR-TAF

Oro uostai :

Kylis, Vokietija

platuma: 54-23N, ilguma: 010-10E, Aukštis: 31 m

Dabartinis oras

Ataskaita buvo paskelbta 25 minutes, ne 08:50 UTC
Vėjas 8 kt iš Pietų/Pietryčių
Temperatūra 17°C
Drėgmė 59%
Slėgis 1009 hPa
Matomumas 10 km arba daugiau
nėra debesų žemiau 1500 m ir nėra kamuolinių lietaus debesų

METAR: EDHK 140850Z 16008KT CAVOK 17/09 Q1009

Laikas: 11:15 (09:15 UTC)

Prognozė

Ataskaita buvo paskelbta 1 valandą ir 15 minutes, ne 08:00 UTC
Prognozė galioja nuo 14 metu 09 UTC su 14 metu 18 UTC
Vėjas 7 kt iš Pietų/Pietryčių
Matomumas 10 km arba daugiau
nėra debesų žemiau 1500 m ir nėra kamuolinių lietaus debesų

TAF: EDHK 140800Z 1409/1418 16007KT CAVOK

Orai ataskaitas ir orų prognozės (METAR, TAF).

turimą stotys yra geltonos ir raudonos taškus žemėlapyje.

Perkelti pele per norėdami pamatyti stoties vardą.

Tada spustelėkite, norėdami matyti oro stebėjimo ir prognozės.

Norėdami pakeisti žemėlapį: spustelėkite ant žalios mygtukų su juodo kryžiaus žemyn,; žalią mygtuką su brūkšneliu, jei norite nutolinti; arba žalių rodyklių gretimoms žemėlapius.


METAR-TAF: